Time;durP1;ratioP1;P1;durP2;ratioP2;P2;SDS_P1;SDS_P2;PMS_P1;PMS_P2;Temp;Humidity;BMP_temperature;BMP_pressure;BME280_temperature;BME280_humidity;BME280_pressure;Samples;Min_cycle;Max_cycle;Signal;HPM_P1;HPM_P2
2022/06/18 00:01:55;;;;;;;10.90;7.30;;;;;;;15.17;100.00;95250.56;5063446;28;20135;-77
2022/06/18 00:04:24;;;;;;;11.50;7.70;;;;;;;15.06;100.00;95247.06;5067569;28;20050;-77
2022/06/18 00:07:05;;;;;;;14.23;8.48;;;;;;;14.94;100.00;95243.81;5085489;28;20556;-77
2022/06/18 00:09:37;;;;;;;11.15;8.63;;;;;;;14.94;100.00;95264.00;5086232;28;20512;-77
2022/06/18 00:15:13;;;;;;;13.35;8.02;;;;;;;14.84;100.00;95251.59;5090666;28;20028;-76
2022/06/18 00:17:40;;;;;;;13.50;9.23;;;;;;;14.66;100.00;95248.25;5091414;28;20048;-76
2022/06/18 00:20:08;;;;;;;12.30;9.52;;;;;;;14.75;100.00;95245.19;5058273;28;20047;-76
2022/06/18 00:22:35;;;;;;;12.68;9.77;;;;;;;14.75;100.00;95250.41;5057273;28;20047;-76
2022/06/18 00:25:07;;;;;;;11.90;9.27;;;;;;;14.75;100.00;95253.03;5072832;28;20074;-76
2022/06/18 00:27:34;;;;;;;11.13;8.57;;;;;;;14.66;100.00;95237.78;5065988;28;20048;-76
2022/06/18 00:30:01;;;;;;;12.00;8.80;;;;;;;14.64;100.00;95244.28;5055278;28;20052;-76
2022/06/18 00:32:27;;;;;;;11.05;8.43;;;;;;;14.62;100.00;95236.69;5087290;28;20517;-76
2022/06/18 00:34:54;;;;;;;12.90;9.07;;;;;;;14.62;100.00;95236.69;5084802;28;20040;-77
2022/06/18 00:37:21;;;;;;;10.13;8.68;;;;;;;14.72;100.00;95242.00;5095559;27;20043;-76
2022/06/18 00:39:50;;;;;;;12.68;9.18;;;;;;;14.61;100.00;95234.31;5066539;28;20051;-77
2022/06/18 00:42:25;;;;;;;11.57;8.15;;;;;;;14.66;100.00;95237.78;5051254;28;20035;-77
2022/06/18 00:44:54;;;;;;;17.88;9.32;;;;;;;14.39;100.00;95205.47;5063446;28;20044;-76
2022/06/18 00:47:42;;;;;;;12.00;8.88;;;;;;;14.51;100.00;95237.56;5064700;28;20800;-76
2022/06/18 00:50:39;;;;;;;10.93;7.90;;;;;;;14.49;100.00;95242.25;5067126;28;20039;-76
2022/06/18 00:53:18;;;;;;;15.05;8.23;;;;;;;14.41;100.00;95245.34;5083531;28;20040;-76
2022/06/18 00:56:00;;;;;;;10.57;8.90;;;;;;;14.31;100.00;95240.75;5082698;28;20111;-75
2022/06/18 00:58:36;;;;;;;10.45;8.43;;;;;;;14.27;100.00;95240.44;5078634;28;20527;-75
2022/06/18 01:01:12;;;;;;;11.27;7.80;;;;;;;14.23;100.00;95236.72;5062759;28;20058;-75
2022/06/18 01:03:39;;;;;;;19.70;8.65;;;;;;;14.16;100.00;95233.50;5081256;28;20032;-76
2022/06/18 01:06:19;;;;;;;11.15;8.77;;;;;;;14.12;100.00;95238.44;5092708;27;20772;-75
2022/06/18 01:08:51;;;;;;;11.52;9.13;;;;;;;14.12;100.00;95238.44;5087152;28;20621;-76
2022/06/18 01:11:22;;;;;;;16.75;10.02;;;;;;;13.89;100.00;95202.78;5063049;28;20122;-75
2022/06/18 01:13:50;;;;;;;12.30;9.20;;;;;;;14.09;100.00;95235.50;5085742;28;20067;-76
2022/06/18 01:16:20;;;;;;;12.23;9.10;;;;;;;14.10;100.00;95234.47;5066350;28;20081;-76
2022/06/18 01:18:50;;;;;;;13.10;9.82;;;;;;;14.08;100.00;95226.03;5070563;28;20043;-76
2022/06/18 01:21:19;;;;;;;12.75;9.57;;;;;;;14.14;100.00;95235.56;5066007;28;20047;-76
2022/06/18 01:23:52;;;;;;;11.40;8.98;;;;;;;14.10;100.00;95229.25;5068104;28;20079;-76
2022/06/18 01:26:20;;;;;;;20.90;9.85;;;;;;;14.06;100.00;95235.97;5065513;28;20044;-75
2022/06/18 01:28:48;;;;;;;16.13;9.98;;;;;;;13.98;100.00;95225.94;5066347;28;20044;-75
2022/06/18 01:31:16;;;;;;;14.73;9.65;;;;;;;13.96;100.00;95234.81;5068666;28;20725;-75
2022/06/18 01:33:46;;;;;;;15.10;10.63;;;;;;;14.02;100.00;95238.28;5063626;28;20039;-76
2022/06/18 01:36:18;;;;;;;14.00;11.18;;;;;;;14.01;100.00;95215.78;5071316;28;20051;-76
2022/06/18 01:38:46;;;;;;;17.55;12.63;;;;;;;14.08;100.00;95226.03;5078534;28;20024;-76
2022/06/18 01:44:31;;;;;;;16.85;13.38;;;;;;;14.15;100.00;95221.41;5064767;28;20127;-76
2022/06/18 01:47:06;;;;;;;19.73;14.50;;;;;;;14.20;100.00;95224.09;5064864;28;20391;-76
2022/06/18 01:49:40;;;;;;;17.15;13.43;;;;;;;14.22;100.00;95227.28;5060623;28;20051;-75
2022/06/18 01:52:11;;;;;;;18.65;14.80;;;;;;;14.24;100.00;95234.88;5049024;28;20054;-75
2022/06/18 01:54:57;;;;;;;16.67;13.27;;;;;;;14.17;100.00;95229.84;5064752;28;20054;-75
2022/06/18 01:57:31;;;;;;;23.05;14.48;;;;;;;14.07;100.00;95220.03;5066021;28;20042;-75
2022/06/18 02:00:12;;;;;;;20.42;13.68;;;;;;;14.13;100.00;95233.97;5061391;28;20036;-75
2022/06/18 02:02:52;;;;;;;18.58;13.10;;;;;;;13.99;100.00;95225.69;5062606;28;20048;-75
2022/06/18 02:05:22;;;;;;;17.38;13.65;;;;;;;14.09;100.00;95233.66;5064891;28;20048;-75
2022/06/18 02:07:50;;;;;;;18.55;12.55;;;;;;;13.96;100.00;95213.88;5081861;28;20044;-75
2022/06/18 02:10:27;;;;;;;16.23;12.63;;;;;;;14.00;100.00;95219.41;5083023;28;20044;-75
2022/06/18 02:12:58;;;;;;;18.67;12.95;;;;;;;13.98;100.00;95231.19;5069811;28;20040;-76
2022/06/18 02:15:30;;;;;;;17.20;12.60;;;;;;;13.89;100.00;95208.00;5045636;28;20046;-76
2022/06/18 02:18:05;;;;;;;25.85;14.10;;;;;;;13.91;100.00;95211.19;5084105;28;20051;-76
2022/06/18 02:20:39;;;;;;;16.13;12.18;;;;;;;13.96;100.00;95211.25;5061351;28;20780;-76
2022/06/18 02:23:06;;;;;;;19.83;11.63;;;;;;;14.07;100.00;95225.25;5091614;27;20067;-76
2022/06/18 02:25:33;;;;;;;16.05;12.65;;;;;;;14.01;100.00;95221.00;5078491;28;20040;-76
2022/06/18 02:28:09;;;;;;;17.15;12.57;;;;;;;14.05;100.00;95222.09;5062689;28;20043;-76
2022/06/18 02:30:37;;;;;;;15.32;11.68;;;;;;;13.93;100.00;95208.31;5061802;28;20117;-76
2022/06/18 02:33:30;;;;;;;16.50;12.43;;;;;;;14.06;100.00;95222.88;5065406;28;20089;-76
2022/06/18 02:36:04;;;;;;;17.23;12.38;;;;;;;14.06;100.00;95225.50;5036887;28;20549;-76
2022/06/18 02:38:31;;;;;;;18.55;13.18;;;;;;;13.99;100.00;95203.94;5079063;28;20032;-77
2022/06/18 02:40:58;;;;;;;15.55;13.00;;;;;;;13.98;100.00;95210.22;5065294;28;20055;-76
2022/06/18 02:43:24;;;;;;;15.50;13.00;;;;;;;14.01;100.00;95215.78;5058987;28;20683;-76
2022/06/18 02:45:55;;;;;;;18.63;13.60;;;;;;;14.05;100.00;95216.06;5068880;28;20043;-76
2022/06/18 02:48:26;;;;;;;16.13;13.43;;;;;;;14.01;100.00;95210.53;5061402;28;20043;-76
2022/06/18 02:50:56;;;;;;;20.50;13.90;;;;;;;13.99;100.00;95202.13;5061493;28;20062;-76
2022/06/18 02:53:24;;;;;;;19.67;13.88;;;;;;;14.06;100.00;95222.88;5059829;28;20327;-76
2022/06/18 02:55:55;;;;;;;22.10;15.10;;;;;;;14.08;100.00;95226.03;5082033;28;20112;-76
2022/06/18 02:58:29;;;;;;;17.23;13.23;;;;;;;14.07;100.00;95214.00;5057120;28;20479;-76
2022/06/18 03:01:00;;;;;;;21.77;13.32;;;;;;;14.03;100.00;95213.69;5063652;28;20058;-76
2022/06/18 03:03:33;;;;;;;20.85;13.85;;;;;;;13.96;100.00;95213.88;5079580;28;20037;-76
2022/06/18 03:06:01;;;;;;;18.25;15.25;;;;;;;13.90;100.00;95209.59;5064682;28;20126;-75
2022/06/18 03:08:30;;;;;;;18.10;13.35;;;;;;;13.98;100.00;95236.41;5049699;28;20036;-76
2022/06/18 03:13:44;;;;;;;21.85;12.88;;;;;;;13.90;100.00;95225.31;5082666;28;20024;-76
2022/06/18 03:16:14;;;;;;;18.90;12.48;;;;;;;13.97;100.00;95246.06;5064268;28;20043;-76
2022/06/18 03:18:43;;;;;;;16.83;11.95;;;;;;;13.91;100.00;95237.34;5083713;28;20122;-76
2022/06/18 03:21:41;;;;;;;15.27;11.57;;;;;;;13.92;100.00;95238.97;5067530;28;20125;-75
2022/06/18 03:24:09;;;;;;;15.90;12.27;;;;;;;13.86;100.00;95228.66;5063695;28;20101;-75
2022/06/18 03:26:36;;;;;;;18.92;12.60;;;;;;;13.81;100.00;95216.28;5067173;28;20043;-76
2022/06/18 03:29:09;;;;;;;18.98;12.38;;;;;;;13.96;100.00;95234.81;5067143;28;20064;-75
2022/06/18 03:31:36;;;;;;;19.10;13.18;;;;;;;14.03;100.00;95244.34;5093119;27;20048;-76
2022/06/18 03:34:04;;;;;;;16.05;12.85;;;;;;;13.99;100.00;95227.50;5065724;28;20174;-76
2022/06/18 03:36:31;;;;;;;16.92;13.10;;;;;;;14.04;100.00;95241.44;5063114;28;20172;-77
2022/06/18 03:38:59;;;;;;;22.23;13.50;;;;;;;14.17;100.00;95255.22;5067487;28;20044;-76
2022/06/18 03:41:27;;;;;;;16.23;13.63;;;;;;;14.09;100.00;95249.38;5064393;28;20662;-76
2022/06/18 03:43:56;;;;;;;19.30;14.07;;;;;;;14.15;100.00;95237.94;5066398;28;20660;-76
2022/06/18 03:46:27;;;;;;;20.95;13.77;;;;;;;14.21;100.00;95249.28;5061532;28;20520;-76
2022/06/18 03:49:03;;;;;;;19.60;13.50;;;;;;;14.26;100.00;95246.72;5053360;28;20044;-77
2022/06/18 03:51:34;;;;;;;24.05;15.18;;;;;;;14.28;100.00;95241.25;5057472;28;20046;-76
2022/06/18 03:54:03;;;;;;;24.02;16.15;;;;;;;14.36;100.00;95242.66;5064981;28;20052;-76
2022/06/18 03:56:31;;;;;;;19.77;15.18;;;;;;;14.38;100.00;95243.19;5079808;28;20032;-76
2022/06/18 03:59:01;;;;;;;22.00;15.68;;;;;;;14.36;100.00;95226.91;5061776;28;20036;-76
2022/06/18 04:01:36;;;;;;;22.15;14.82;;;;;;;14.49;100.00;95231.78;5060760;28;20361;-76
2022/06/18 04:04:03;;;;;;;20.92;15.45;;;;;;;14.57;100.00;95233.97;5045335;28;20048;-76
2022/06/18 04:06:38;;;;;;;21.35;16.75;;;;;;;14.56;100.00;95232.38;5078741;28;20043;-76
2022/06/18 04:09:25;;;;;;;19.38;15.00;;;;;;;14.62;100.00;95234.06;5078326;28;20190;-78
2022/06/18 04:11:53;;;;;;;21.95;15.90;;;;;;;14.59;100.00;95221.44;5061766;28;20041;-77
2022/06/18 04:14:20;;;;;;;18.98;14.95;;;;;;;14.72;100.00;95231.53;5062467;28;20605;-77
2022/06/18 04:16:57;;;;;;;22.50;14.48;;;;;;;14.66;100.00;95227.28;5062188;28;20555;-76
2022/06/18 04:19:24;;;;;;;18.88;15.05;;;;;;;14.62;100.00;95220.97;5060027;28;20530;-77
2022/06/18 04:21:53;;;;;;;20.67;15.20;;;;;;;14.77;100.00;95227.41;5050874;28;20067;-76
2022/06/18 04:24:24;;;;;;;23.95;15.48;;;;;;;14.83;100.00;95218.53;5045324;28;20144;-77
2022/06/18 04:26:52;;;;;;;17.88;14.75;;;;;;;14.95;100.00;95234.91;5044235;28;20043;-77
2022/06/18 04:29:21;;;;;;;19.52;15.32;;;;;;;15.07;100.00;95242.59;5062816;28;20107;-76
2022/06/18 04:31:48;;;;;;;18.33;14.60;;;;;;;14.93;100.00;95221.25;5065440;28;20036;-77
2022/06/18 04:34:17;;;;;;;22.98;15.48;;;;;;;15.06;100.00;95239.19;5050201;28;20039;-77
2022/06/18 04:37:15;;;;;;;14.27;12.68;;;;;;;15.15;100.00;95244.00;5031288;28;20056;-77
2022/06/18 04:40:04;;;;;;;17.40;14.05;;;;;;;15.14;100.00;95242.41;5059595;28;20047;-78
2022/06/18 04:42:49;;;;;;;16.55;13.68;;;;;;;15.15;100.00;95236.91;5064793;28;20122;-73
2022/06/18 04:45:17;;;;;;;19.55;14.30;;;;;;;15.24;100.00;95253.00;5045761;28;20040;-76
2022/06/18 04:47:54;;;;;;;20.70;14.65;;;;;;;15.27;100.00;95252.50;5062612;28;20125;-69
2022/06/18 04:50:30;;;;;;;19.35;14.98;;;;;;;15.35;100.00;95254.66;5060290;28;20052;-69
2022/06/18 04:52:59;;;;;;;18.15;14.05;;;;;;;15.37;100.00;95236.84;5067245;28;20058;-68
2022/06/18 04:55:27;;;;;;;21.77;13.90;;;;;;;15.51;100.00;95252.19;5061895;28;20105;-68
2022/06/18 04:57:54;;;;;;;19.08;14.13;;;;;;;15.53;100.00;95253.50;5094848;27;20058;-68
2022/06/18 05:00:21;;;;;;;18.63;12.88;;;;;;;15.65;100.00;95263.84;5082321;28;20032;-68
2022/06/18 05:03:05;;;;;;;24.25;15.38;;;;;;;15.78;100.00;95258.16;5068435;28;20151;-70
2022/06/18 05:05:48;;;;;;;18.30;13.98;;;;;;;15.85;100.00;95248.22;5080824;28;20032;-69
2022/06/18 05:08:35;;;;;;;21.48;14.07;;;;;;;15.94;100.00;95259.06;5087977;28;20670;-69
2022/06/18 05:11:10;;;;;;;17.98;13.52;;;;;;;15.93;100.00;95254.03;5065708;28;20114;-70
2022/06/18 05:13:46;;;;;;;17.42;13.60;;;;;;;16.01;100.00;95256.22;5062959;28;20577;-69
2022/06/18 05:16:27;;;;;;;19.92;14.23;;;;;;;16.00;100.00;95259.88;5061450;28;20159;-69
2022/06/18 05:18:54;;;;;;;18.25;13.65;;;;;;;16.13;100.00;95264.66;5066861;28;20106;-70
2022/06/18 05:21:22;;;;;;;19.05;14.52;;;;;;;16.21;100.00;95272.06;5062297;28;20056;-69
2022/06/18 05:23:52;;;;;;;19.58;14.00;;;;;;;16.29;100.00;95267.38;5061675;28;20738;-70
2022/06/18 05:26:22;;;;;;;18.15;13.00;;;;;;;16.31;100.00;95265.28;5066584;28;20040;-68
2022/06/18 05:28:49;;;;;;;20.80;14.18;;;;;;;16.39;100.00;95262.19;5086211;28;20050;-70
2022/06/18 05:31:17;;;;;;;17.35;14.10;;;;;;;16.45;100.00;95261.13;5064392;28;20068;-69
2022/06/18 05:33:46;;;;;;;18.33;13.77;;;;;;;16.54;100.00;95258.81;5063665;28;20047;-69
2022/06/18 05:36:19;;;;;;;22.25;14.43;;;;;;;16.62;100.00;95267.00;5065700;28;20126;-70
2022/06/18 05:38:49;;;;;;;22.02;12.68;;;;;;;16.70;100.00;95272.81;5047627;28;20059;-70
2022/06/18 05:41:16;;;;;;;17.20;13.43;;;;;;;16.82;100.00;95265.47;5085475;28;20044;-70
2022/06/18 05:43:43;;;;;;;28.48;12.95;;;;;;;16.88;100.00;95253.94;5061394;28;20055;-70
2022/06/18 05:46:13;;;;;;;15.80;11.73;;;;;;;17.05;100.00;95273.97;5066783;28;20127;-69
2022/06/18 05:48:40;;;;;;;14.30;11.32;;;;;;;17.19;100.00;95269.78;5078978;28;20036;-70
2022/06/18 05:51:09;;;;;;;16.80;10.52;;;;;;;17.29;100.00;95269.78;5064751;28;20067;-69
2022/06/18 05:53:36;;;;;;;14.00;10.40;;;;;;;17.36;100.00;95275.59;5060642;28;20051;-70
2022/06/18 05:56:36;;;;;;;17.45;10.90;;;;;;;17.39;100.00;95282.97;5067841;28;20040;-70
2022/06/18 05:59:23;;;;;;;13.82;11.85;;;;;;;17.55;100.00;95273.22;5082258;28;20044;-69
2022/06/18 06:01:50;;;;;;;13.35;11.10;;;;;;;17.68;100.00;95279.81;5069287;28;20040;-69
2022/06/18 06:04:19;;;;;;;13.82;10.80;;;;;;;17.82;100.00;95281.91;5068066;28;20051;-70
2022/06/18 06:06:52;;;;;;;15.88;10.73;;;;;;;17.99;100.00;95276.34;5062192;28;20040;-70
2022/06/18 06:12:11;;;;;;;15.98;11.30;;;;;;;18.15;100.00;95283.97;5065087;28;20044;-69
2022/06/18 06:14:40;;;;;;;20.42;11.30;;;;;;;18.26;100.00;95281.34;5064904;28;20039;-70
2022/06/18 06:17:19;;;;;;;15.05;10.45;;;;;;;18.40;100.00;95282.34;5079741;28;20054;-69
2022/06/18 06:19:47;;;;;;;14.02;10.35;;;;;;;18.63;100.00;95275.63;5082866;28;20147;-70
2022/06/18 06:22:14;;;;;;;12.48;9.93;;;;;;;18.78;100.00;95276.63;5083627;28;20044;-73
2022/06/18 06:24:41;;;;;;;9.73;8.30;;;;;;;18.87;100.00;95262.63;5086870;28;20566;-70
2022/06/18 06:27:11;;;;;;;11.30;8.88;;;;;;;18.97;100.00;95268.91;5080660;28;20043;-69
2022/06/18 06:29:38;;;;;;;42.70;9.35;;;;;;;19.10;100.00;95268.28;5083598;28;21508;-70
2022/06/18 06:32:05;;;;;;;12.07;7.15;;;;;;;19.21;100.00;95267.19;5086869;28;20153;-69
2022/06/18 06:34:32;;;;;;;9.13;7.45;;;;;;;19.42;100.00;95275.72;5085543;28;20093;-70
2022/06/18 06:36:59;;;;;;;8.73;7.28;;;;;;;19.57;100.00;95276.69;5084137;28;20047;-69
2022/06/18 06:39:26;;;;;;;7.80;6.85;;;;;;;19.77;100.00;95271.28;5088228;28;20047;-70
2022/06/18 06:41:53;;;;;;;9.07;6.13;;;;;;;19.80;100.00;95269.91;5083450;28;20044;-68
2022/06/18 06:44:19;;;;;;;8.95;6.55;;;;;;;19.95;100.00;95272.44;5085574;28;20048;-70
2022/06/18 06:46:46;;;;;;;7.78;6.15;;;;;;;20.15;100.00;95270.63;5055421;28;20048;-69
2022/06/18 06:49:14;;;;;;;7.97;5.97;;;;;;;20.21;97.51;95274.81;5062660;28;20035;-70
2022/06/18 06:51:41;;;;;;;7.00;6.20;;;;;;;20.13;96.52;95263.00;5079837;28;20055;-69
2022/06/18 06:54:08;;;;;;;6.97;5.25;;;;;;;20.22;96.55;95276.38;5085640;28;20134;-69
2022/06/18 06:59:21;;;;;;;6.93;5.88;;;;;;;20.41;95.19;95277.22;5060890;28;20048;-75
2022/06/18 07:01:48;;;;;;;7.18;5.32;;;;;;;20.34;92.30;95274.13;5084803;28;20047;-72
2022/06/18 07:04:15;;;;;;;8.07;5.82;;;;;;;20.39;93.88;95266.13;5064980;28;20822;-69
2022/06/18 07:06:43;;;;;;;9.00;5.43;;;;;;;20.41;92.43;95256.06;5066654;28;20048;-70
2022/06/18 07:09:09;;;;;;;4.88;4.30;;;;;;;20.67;89.67;95271.69;5078485;28;20051;-70
2022/06/18 07:11:37;;;;;;;8.13;5.10;;;;;;;20.78;88.36;95273.13;5088052;28;20067;-67
2022/06/18 07:14:05;;;;;;;5.07;4.57;;;;;;;20.91;88.26;95266.31;5078064;28;20042;-70
2022/06/18 07:16:32;;;;;;;9.75;4.60;;;;;;;21.01;86.66;95265.38;5081187;28;20043;-74
2022/06/18 07:19:00;;;;;;;6.47;4.60;;;;;;;21.04;81.98;95259.53;5077829;28;20040;-72
2022/06/18 07:21:28;;;;;;;5.97;3.92;;;;;;;21.29;83.45;95279.56;5081171;28;20604;-70
2022/06/18 07:23:55;;;;;;;7.35;4.75;;;;;;;21.33;81.57;95261.22;5079801;28;20071;-68
2022/06/18 07:26:22;;;;;;;4.72;4.20;;;;;;;21.44;79.67;95277.75;5083569;28;20073;-69
2022/06/18 07:28:49;;;;;;;12.60;4.82;;;;;;;21.70;81.02;95281.63;5059319;28;20044;-75
2022/06/18 07:31:27;;;;;;;4.43;4.00;;;;;;;21.89;76.68;95278.91;5062916;28;20035;-73
2022/06/18 07:33:57;;;;;;;6.32;4.68;;;;;;;21.96;76.57;95274.00;5064279;28;20109;-74
2022/06/18 07:36:27;;;;;;;6.53;4.60;;;;;;;22.12;78.67;95287.00;5065856;28;20047;-66
2022/06/18 07:38:53;;;;;;;6.72;3.92;;;;;;;22.37;75.57;95285.00;5082622;28;20040;-73
2022/06/18 07:41:34;;;;;;;7.25;3.92;;;;;;;22.36;74.06;95280.75;5084207;28;20036;-73
2022/06/18 07:44:02;;;;;;;4.75;4.10;;;;;;;22.42;75.23;95279.56;5085391;28;20742;-73
2022/06/18 07:46:29;;;;;;;4.20;3.80;;;;;;;22.42;73.73;95274.25;5079473;28;21503;-73
2022/06/18 07:48:56;;;;;;;4.40;3.88;;;;;;;22.54;71.86;95277.22;5084212;28;20048;-73
2022/06/18 07:51:26;;;;;;;5.38;3.58;;;;;;;22.64;72.03;95282.31;5084069;28;20048;-73
2022/06/18 07:53:54;;;;;;;12.18;3.47;;;;;;;22.66;71.81;95285.47;5052735;28;20234;-73
2022/06/18 07:56:21;;;;;;;5.07;4.30;;;;;;;22.86;73.24;95278.16;5063051;28;20052;-73
2022/06/18 07:58:48;;;;;;;7.55;4.35;;;;;;;23.13;71.30;95287.19;5090520;28;20051;-74
2022/06/18 08:01:15;;;;;;;4.35;3.90;;;;;;;22.99;70.58;95277.34;5058481;28;20036;-73
2022/06/18 08:03:43;;;;;;;4.80;4.28;;;;;;;22.95;72.08;95284.34;5062200;28;21370;-73
2022/06/18 08:06:11;;;;;;;6.15;3.92;;;;;;;23.12;69.55;95285.63;5082583;28;20048;-74
2022/06/18 08:08:38;;;;;;;6.82;4.13;;;;;;;23.37;69.90;95277.09;5080963;28;20524;-73
2022/06/18 08:11:09;;;;;;;6.80;4.63;;;;;;;23.15;71.74;95282.38;5044903;28;20040;-73
2022/06/18 08:13:37;;;;;;;6.43;3.88;;;;;;;23.24;68.27;95288.53;5079917;28;20047;-73
2022/06/18 08:16:04;;;;;;;7.60;3.78;;;;;;;23.20;67.32;95272.41;5063326;28;20051;-73
2022/06/18 08:18:32;;;;;;;5.57;4.40;;;;;;;23.49;71.10;95279.19;5063679;28;20056;-74
2022/06/18 08:21:08;;;;;;;6.80;4.75;;;;;;;23.85;67.04;95284.47;5082748;28;20155;-75
2022/06/18 08:23:36;;;;;;;6.70;5.32;;;;;;;23.83;66.37;95273.34;5080164;28;20052;-75
2022/06/18 08:26:06;;;;;;;8.07;5.10;;;;;;;23.89;63.39;95278.53;5084195;28;20052;-75
2022/06/18 08:28:34;;;;;;;4.53;4.13;;;;;;;23.81;65.03;95291.47;5082618;28;20048;-75
2022/06/18 08:31:04;;;;;;;6.60;4.00;;;;;;;23.89;65.56;95297.16;5065827;28;20049;-74
2022/06/18 08:33:32;;;;;;;5.05;4.28;;;;;;;23.64;64.04;95301.97;5080243;28;20541;-75
2022/06/18 08:36:01;;;;;;;7.65;4.60;;;;;;;23.60;66.90;95290.38;5062339;28;20048;-75
2022/06/18 08:38:29;;;;;;;5.43;4.63;;;;;;;23.61;67.57;95292.72;5084406;28;20699;-75
2022/06/18 08:41:20;;;;;;;9.68;5.25;;;;;;;23.70;68.66;95300.78;5065098;28;20050;-75
2022/06/18 08:44:28;;;;;;;7.88;4.32;;;;;;;23.69;64.71;95291.22;5057142;28;20048;-75
2022/06/18 08:47:46;;;;;;;8.40;4.43;;;;;;;23.59;62.47;95294.13;5040944;28;20048;-75
2022/06/18 08:50:32;;;;;;;6.97;4.65;;;;;;;23.69;62.55;95293.88;5038079;28;20176;-75
2022/06/18 08:53:18;;;;;;;7.95;5.15;;;;;;;23.84;62.89;95296.19;5078582;28;20779;-75
2022/06/18 08:56:08;;;;;;;4.97;4.30;;;;;;;23.87;63.28;95286.03;5076573;28;20040;-75
2022/06/18 08:58:36;;;;;;;5.50;3.97;;;;;;;23.87;59.95;95288.69;5095038;28;20743;-75
2022/06/18 09:01:18;;;;;;;7.18;4.10;;;;;;;23.67;58.45;95264.91;5078301;28;20028;-77
2022/06/18 09:04:00;;;;;;;8.15;3.90;;;;;;;23.91;58.80;95277.13;5069453;28;20694;-74
2022/06/18 09:06:46;;;;;;;6.82;3.95;;;;;;;24.15;58.75;95282.13;5048704;28;20451;-74
2022/06/18 09:09:28;;;;;;;9.13;4.00;;;;;;;24.23;58.24;95281.34;5084820;28;20047;-74
2022/06/18 09:12:08;;;;;;;5.03;3.67;;;;;;;24.14;56.71;95283.19;5062836;28;20048;-75
2022/06/18 09:14:54;;;;;;;6.20;4.05;;;;;;;24.08;56.24;95279.13;5100719;27;20128;-75
2022/06/18 09:17:36;;;;;;;6.10;3.72;;;;;;;24.14;58.12;95277.88;5049828;28;20052;-76
2022/06/18 09:20:09;;;;;;;5.50;4.13;;;;;;;24.19;57.74;95274.31;5083415;28;20044;-75
2022/06/18 09:22:44;;;;;;;5.05;3.67;;;;;;;24.17;58.20;95277.28;5062624;28;20105;-75
2022/06/18 09:25:17;;;;;;;5.65;4.63;;;;;;;24.35;59.20;95266.72;5086434;28;20048;-75
2022/06/18 09:27:56;;;;;;;9.23;4.07;;;;;;;24.56;58.85;95267.75;5062574;28;20040;-75
2022/06/18 09:30:32;;;;;;;7.22;3.22;;;;;;;24.70;56.09;95261.50;5068952;28;20097;-75
2022/06/18 09:33:05;;;;;;;8.07;4.07;;;;;;;24.72;54.51;95269.97;5065860;28;20068;-75
2022/06/18 09:35:51;;;;;;;4.75;4.15;;;;;;;24.65;53.39;95281.09;5069488;28;20044;-75
2022/06/18 09:38:39;;;;;;;7.38;4.03;;;;;;;24.52;53.44;95266.75;5063413;28;20059;-74
2022/06/18 09:41:24;;;;;;;8.02;3.40;;;;;;;24.83;55.43;95281.91;5087548;28;20032;-75
2022/06/18 09:44:07;;;;;;;5.60;4.30;;;;;;;24.94;55.16;95277.84;5088117;28;20128;-75
2022/06/18 09:46:40;;;;;;;5.32;4.13;;;;;;;24.91;55.46;95275.78;5092058;28;20040;-74
2022/06/18 09:49:07;;;;;;;4.93;4.43;;;;;;;24.85;55.73;95279.72;5061326;28;20047;-74
2022/06/18 09:52:14;;;;;;;4.38;3.95;;;;;;;24.67;54.33;95278.09;5089110;28;20686;-75
2022/06/18 09:55:07;;;;;;;6.68;4.00;;;;;;;24.72;53.07;95281.41;5084160;28;20040;-75
2022/06/18 09:57:38;;;;;;;6.35;3.92;;;;;;;24.74;55.57;95283.75;5060918;28;20040;-75
2022/06/18 10:00:14;;;;;;;9.95;4.95;;;;;;;24.79;55.59;95278.28;5058668;28;20616;-74
2022/06/18 10:03:07;;;;;;;4.57;3.70;;;;;;;25.07;55.32;95275.34;5064307;28;20032;-75
2022/06/18 10:08:40;;;;;;;7.13;4.20;;;;;;;26.32;50.91;95285.25;5067523;28;20129;-74
2022/06/18 10:11:11;;;;;;;4.57;3.97;;;;;;;26.46;48.05;95269.03;5084949;28;20048;-75
2022/06/18 10:13:50;;;;;;;4.68;3.90;;;;;;;26.52;47.38;95284.56;5085692;28;20110;-75
2022/06/18 10:16:41;;;;;;;5.05;4.45;;;;;;;26.19;50.28;95280.91;5079279;28;20760;-74
2022/06/18 10:19:35;;;;;;;6.70;5.90;;;;;;;25.80;51.23;95274.72;5092838;27;20043;-73
2022/06/18 10:22:47;;;;;;;6.45;4.57;;;;;;;25.72;53.42;95269.06;5078056;28;20122;-67
2022/06/18 10:25:13;;;;;;;5.63;4.82;;;;;;;26.19;50.25;95279.03;5041849;28;20060;-68
2022/06/18 10:28:06;;;;;;;7.03;4.82;;;;;;;26.44;51.53;95282.69;5080715;28;20083;-68
2022/06/18 10:30:49;;;;;;;5.85;4.95;;;;;;;26.36;51.64;95275.50;5082170;28;20040;-68
2022/06/18 10:33:32;;;;;;;7.32;5.97;;;;;;;26.27;54.37;95277.41;5082329;28;20048;-68
2022/06/18 10:36:27;;;;;;;13.85;4.45;;;;;;;26.84;51.55;95285.03;5081110;28;20050;-69
2022/06/18 10:39:23;;;;;;;6.97;5.32;;;;;;;26.96;50.22;95286.22;5083917;28;20047;-68
2022/06/18 10:41:58;;;;;;;5.72;4.63;;;;;;;27.22;51.18;95294.84;5082211;28;20217;-79
2022/06/18 10:44:48;;;;;;;4.90;4.20;;;;;;;27.74;49.71;95282.16;5086234;28;20042;-77
2022/06/18 10:47:17;;;;;;;5.38;4.25;;;;;;;27.84;48.72;95261.13;5080158;28;20043;-77
2022/06/18 10:49:47;;;;;;;4.28;3.88;;;;;;;28.36;47.43;95302.66;5068086;28;20054;-78
2022/06/18 10:52:25;;;;;;;6.50;3.80;;;;;;;28.69;45.22;95304.47;5064537;28;20037;-77
2022/06/18 10:55:16;;;;;;;5.05;3.47;;;;;;;28.18;45.57;95310.09;5084174;28;20031;-78
2022/06/18 10:57:48;;;;;;;5.10;3.30;;;;;;;28.10;46.79;95304.81;5080787;28;20119;-70
2022/06/18 11:00:25;;;;;;;6.82;3.85;;;;;;;28.29;46.54;95315.81;5081684;28;20044;-76
2022/06/18 11:02:55;;;;;;;4.82;4.32;;;;;;;28.29;45.21;95302.41;5083099;27;20049;-76
2022/06/18 11:05:31;;;;;;;7.55;4.20;;;;;;;28.68;49.44;95302.13;5061547;28;20040;-78
2022/06/18 11:08:01;;;;;;;5.05;4.30;;;;;;;28.91;46.19;95283.69;5078676;28;20036;-77
2022/06/18 11:10:51;;;;;;;9.40;5.07;;;;;;;28.99;45.40;95285.44;5060699;28;20046;-77
2022/06/18 11:13:39;;;;;;;13.68;5.40;;;;;;;29.01;46.23;95282.41;5057058;28;20041;-77
2022/06/18 11:16:18;;;;;;;5.32;4.07;;;;;;;28.57;46.06;95275.75;5077591;28;20036;-75
2022/06/18 11:19:02;;;;;;;4.47;4.07;;;;;;;28.67;44.49;95279.91;5062471;28;20040;-78
2022/06/18 11:21:45;;;;;;;4.38;3.47;;;;;;;28.83;44.84;95279.22;5056947;28;20461;-78
2022/06/18 11:24:13;;;;;;;4.00;3.25;;;;;;;28.73;42.94;95272.41;5054102;28;21445;-78
2022/06/18 11:27:02;;;;;;;5.78;3.47;;;;;;;28.81;43.72;95274.22;5067777;28;20122;-79
2022/06/18 11:29:40;;;;;;;3.38;3.05;;;;;;;28.24;42.81;95273.16;5077533;28;20504;-79
2022/06/18 11:32:21;;;;;;;4.60;3.80;;;;;;;28.25;44.14;95263.22;5060884;28;20040;-78
2022/06/18 11:34:57;;;;;;;6.18;2.83;;;;;;;28.14;42.53;95278.94;5057294;28;20152;-79
2022/06/18 11:37:27;;;;;;;5.60;3.53;;;;;;;28.32;43.70;95258.88;5046742;28;20052;-78
2022/06/18 11:40:18;;;;;;;4.80;3.35;;;;;;;28.72;43.90;95260.94;5045225;28;20047;-78
2022/06/18 11:43:30;;;;;;;4.45;3.08;;;;;;;29.06;42.99;95280.28;5060180;28;20421;-79
2022/06/18 11:46:08;;;;;;;3.97;3.58;;;;;;;29.40;41.79;95278.22;5041662;28;20039;-79
2022/06/18 11:48:40;;;;;;;6.40;3.83;;;;;;;29.81;40.97;95287.03;5043484;28;20054;-74
2022/06/18 11:51:20;;;;;;;5.05;3.92;;;;;;;29.44;40.46;95279.13;5075907;28;20047;-80
2022/06/18 11:53:48;;;;;;;5.00;3.53;;;;;;;29.96;41.33;95282.03;5075211;28;20101;-81
2022/06/18 11:56:28;;;;;;;3.65;3.35;;;;;;;29.76;39.02;95279.22;5055237;28;20052;-77
2022/06/18 11:59:09;;;;;;;6.97;3.20;;;;;;;30.07;39.28;95272.34;5076203;28;20040;-73
2022/06/18 12:01:44;;;;;;;5.75;3.58;;;;;;;29.99;38.23;95278.66;5071698;28;20032;-75
2022/06/18 12:04:27;;;;;;;5.43;3.45;;;;;;;29.86;39.25;95284.09;5056688;28;20241;-75
2022/06/18 12:07:01;;;;;;;3.47;3.17;;;;;;;30.40;35.80;95287.38;5063092;28;20133;-75
2022/06/18 12:09:31;;;;;;;4.45;3.13;;;;;;;30.38;36.32;95292.31;5085595;28;20044;-76
2022/06/18 12:12:08;;;;;;;4.78;3.17;;;;;;;30.43;36.40;95290.16;5079172;28;20043;-73